Chalkyitsik, AK (99788)

12:25 AM AKDT on October 20, 2014 (GMT -0800)
Fort Yukon | Change Station
CLOSE
Current Station
Airport
Location: Fort Yukon,
Elevation: 430 ft
Nearby Weather Stations

Elev 430 ft 66.57 °N, 145.27 °W | Updated 9 minutes ago

Overcast
Overcast
27 °F
Feels Like 18 °F
N
9
Wind Variable Wind from NE

Today
High -- | Low -- °F
--% Chance of Precip.
Yesterday
High -- | Low -- °F
Precip. -- in
8:51 AM 5:46 PM
Waning Crescent, 12% visible
Pressure 29.41 in
Visibility 10.0 miles
Clouds Overcast 3400 ft
Windchill 18 °F
Dew Point 19 °F
Humidity 74%
Rainfall 0.00 in
Snow Depth Not available.
UV 0 out of 12
Pollen Not available.
Air Quality Not available.
Flu Activity Sporadic
METAR PFYU 200816Z 05008KT 10SM OVC034 M03/M07 A2941 RMK AO1

More Conditions Fewer Conditions

Pressure 29.41 in
Visibility 10.0 miles
Clouds Overcast 3400 ft
Windchill 18 °F
Dew Point 19 °F
Humidity 74%
Rainfall 0.00 in
Snow Depth Not available.
UV 0 out of 12
Pollen Not available.
Air Quality Not available.
Flu Activity Sporadic
METAR PFYU 200816Z 05008KT 10SM OVC034 M03/M07 A2941 RMK AO1

More Conditions Fewer Conditions

10-Day Weather Forecast

Almanac

Astronomy

Oct. 20, 2014 Rise Set
Actual Time 8:51 AM AKDT 5:46 PM AKDT
Civil Twilight 7:56 AM AKDT 6:41 PM AKDT
Nautical Twilight 6:55 AM AKDT 7:42 PM AKDT
Astronomical Twilight 5:53 AM AKDT 8:43 PM AKDT
Moon 4:35 AM AKDT 5:14 PM AKDT
Length of Visible Light 10h 44m
Length of Day
8h 54m
Waning Crescent, 12% of the Moon is Illuminated
Today
Waning Crescent
Oct 23
New
Oct 30
First Quarter
Nov 6
Full
Nov 14
Last Quarter

Today's Extremes

State Highs State Lows

Community

WunderPhotos

Upload Photos

1,763,316 photos uploaded!

Nearby

Snow Depth

Station Depth Elevation
Fort Yukon 3 in 430 ft
Eagle Summit 13 in 3650 ft
Upper Chena 10 in 2850 ft
Mt. Ryan 7 in 2800 ft
Monument Creek 5 in 1850 ft

Earthquake Activity

City Distance Mag. Time & Date
No recent earthquake activity has been reported nearby.
Minimum magnitude displayed is 2.5.

Coastal Water Temperatures

Place Temperature
No Stations Reporting

Nearby Weather Stations